createdAt,value
2019-01-27T00:00:14.259Z,44.52
2019-01-27T00:02:42.942Z,44.42
2019-01-27T00:05:11.070Z,44.49
2019-01-27T00:07:39.737Z,44.47
2019-01-27T00:10:09.076Z,44.38
2019-01-27T00:12:37.854Z,44.44
2019-01-27T00:15:06.257Z,44.41
2019-01-27T00:17:34.943Z,44.37
2019-01-27T00:20:03.143Z,44.38
2019-01-27T00:22:31.864Z,44.29
2019-01-27T00:24:59.776Z,44.09
2019-01-27T00:27:28.687Z,44.19
2019-01-27T00:29:57.380Z,44.12
2019-01-27T00:32:26.114Z,44.06
2019-01-27T00:34:54.341Z,44.03
2019-01-27T00:37:22.974Z,43.99
2019-01-27T00:39:51.175Z,43.87
2019-01-27T00:42:19.884Z,43.82
2019-01-27T00:44:48.611Z,43.70
2019-01-27T00:47:16.507Z,43.82
2019-01-27T00:49:45.451Z,43.71
2019-01-27T00:52:14.244Z,43.77
2019-01-27T00:54:42.382Z,43.60
2019-01-27T00:57:10.978Z,43.60
2019-01-27T00:59:39.626Z,43.55
2019-01-27T01:02:08.395Z,43.60
2019-01-27T01:04:36.348Z,43.57
2019-01-27T01:07:05.019Z,43.46
2019-01-27T01:09:34.308Z,43.44
2019-01-27T01:12:03.033Z,43.51
2019-01-27T01:14:30.918Z,43.55
2019-01-27T01:16:59.666Z,43.63
2019-01-27T01:19:27.494Z,43.63
2019-01-27T01:21:56.074Z,43.69
2019-01-27T01:24:24.742Z,43.73
2019-01-27T01:26:52.820Z,43.78
2019-01-27T01:29:21.411Z,43.77
2019-01-27T01:31:49.297Z,43.84
2019-01-27T01:34:17.898Z,43.89
2019-01-27T01:36:45.798Z,43.86
2019-01-27T01:39:14.371Z,43.98
2019-01-27T01:41:43.057Z,44.01
2019-01-27T01:44:11.023Z,44.04
2019-01-27T01:46:39.625Z,44.06
2019-01-27T01:49:07.529Z,44.11
2019-01-27T01:51:36.127Z,44.15
2019-01-27T01:54:04.870Z,44.18
2019-01-27T01:56:32.746Z,44.20
2019-01-27T01:59:01.402Z,44.28
2019-01-27T02:01:29.273Z,44.30
2019-01-27T02:03:58.198Z,44.35
2019-01-27T02:06:26.862Z,44.28
2019-01-27T02:08:55.502Z,44.31
2019-01-27T02:11:24.147Z,44.32
2019-01-27T02:13:52.101Z,44.37
2019-01-27T02:16:20.774Z,44.40
2019-01-27T02:18:48.842Z,44.46
2019-01-27T02:21:17.410Z,44.52
2019-01-27T02:23:46.078Z,44.55
2019-01-27T02:26:14.708Z,44.54
2019-01-27T02:28:42.568Z,44.50
2019-01-27T02:31:11.218Z,44.53
2019-01-27T02:33:40.143Z,44.55
2019-01-27T02:36:08.814Z,44.43
2019-01-27T02:38:37.687Z,44.41
2019-01-27T02:41:06.375Z,44.36
2019-01-27T02:43:35.016Z,44.39
2019-01-27T02:46:03.950Z,44.36
2019-01-27T02:48:32.897Z,44.32
2019-01-27T02:51:01.593Z,44.30
2019-01-27T02:53:30.277Z,44.29
2019-01-27T02:55:58.980Z,44.29
2019-01-27T02:58:27.662Z,44.29
2019-01-27T03:00:56.329Z,44.27
2019-01-27T03:03:25.017Z,44.22
2019-01-27T03:06:11.197Z,44.25
2019-01-27T03:08:45.790Z,44.28
2019-01-27T03:11:14.464Z,44.25
2019-01-27T03:13:43.095Z,44.19
2019-01-27T03:16:12.678Z,44.20
2019-01-27T03:18:41.343Z,44.22
2019-01-27T03:21:10.085Z,44.17
2019-01-27T03:23:38.000Z,44.20
2019-01-27T03:26:06.747Z,44.15
2019-01-27T03:28:34.847Z,44.16
2019-01-27T03:31:03.522Z,44.14
2019-01-27T03:33:32.273Z,44.15
2019-01-27T03:36:00.176Z,44.12
2019-01-27T03:38:28.933Z,44.11
2019-01-27T03:40:57.581Z,44.10
2019-01-27T03:43:26.489Z,44.11
2019-01-27T03:45:55.201Z,44.11
2019-01-27T03:48:23.068Z,44.10
2019-01-27T03:50:52.002Z,44.08
2019-01-27T03:53:20.721Z,44.10
2019-01-27T03:55:49.469Z,44.07
2019-01-27T03:58:17.359Z,44.05
2019-01-27T04:00:46.097Z,44.05
2019-01-27T04:03:14.240Z,44.04
2019-01-27T04:05:42.829Z,44.04
2019-01-27T04:08:11.554Z,44.03
2019-01-27T04:10:39.413Z,43.95
2019-01-27T04:13:08.088Z,43.91
2019-01-27T04:15:36.019Z,43.79
2019-01-27T04:18:04.714Z,43.76
2019-01-27T04:20:32.553Z,43.75
2019-01-27T04:23:01.126Z,43.69
2019-01-27T04:25:29.852Z,43.61
2019-01-27T04:27:58.005Z,43.57
2019-01-27T04:30:32.164Z,43.50
2019-01-27T04:33:00.882Z,43.49
2019-01-27T04:35:29.556Z,43.46
2019-01-27T04:37:58.242Z,43.38
2019-01-27T04:40:27.035Z,43.34
2019-01-27T04:42:54.896Z,43.25
2019-01-27T04:45:27.379Z,43.28
2019-01-27T04:47:56.255Z,43.26
2019-01-27T04:50:24.929Z,43.27
2019-01-27T04:52:53.579Z,43.28
2019-01-27T04:55:22.257Z,43.31
2019-01-27T04:57:50.146Z,43.30
2019-01-27T05:00:20.841Z,43.32
2019-01-27T05:03:03.737Z,43.34
2019-01-27T05:05:32.441Z,43.34
2019-01-27T05:08:01.563Z,43.37
2019-01-27T05:10:30.799Z,43.42
2019-01-27T05:12:59.459Z,43.41
2019-01-27T05:15:29.212Z,43.42
2019-01-27T05:17:57.895Z,43.46
2019-01-27T05:20:26.662Z,43.48
2019-01-27T05:22:54.622Z,43.50
2019-01-27T05:25:23.307Z,43.57
2019-01-27T05:27:51.186Z,43.56
2019-01-27T05:30:20.364Z,43.45
2019-01-27T05:32:49.645Z,43.29
2019-01-27T05:35:18.336Z,43.09
2019-01-27T05:37:46.997Z,43.05
2019-01-27T05:40:15.696Z,42.99
2019-01-27T05:42:43.551Z,42.95
2019-01-27T05:45:13.754Z,42.95
2019-01-27T05:47:42.629Z,42.87
2019-01-27T05:50:12.455Z,42.78
2019-01-27T05:52:41.196Z,42.75
2019-01-27T05:55:09.542Z,42.71
2019-01-27T05:57:38.195Z,42.69
2019-01-27T06:00:07.923Z,42.67
2019-01-27T06:02:36.807Z,42.64
2019-01-27T06:05:06.004Z,42.55
2019-01-27T06:07:34.722Z,42.54
2019-01-27T06:10:03.653Z,42.52
2019-01-27T06:12:32.529Z,42.46
2019-01-27T06:15:01.188Z,42.41
2019-01-27T06:17:29.928Z,42.37
2019-01-27T06:19:57.947Z,42.35
2019-01-27T06:22:26.632Z,42.32
2019-01-27T06:24:54.503Z,42.32
2019-01-27T06:27:23.076Z,42.28
2019-01-27T06:29:52.012Z,42.25
2019-01-27T06:32:38.725Z,42.25
2019-01-27T06:35:07.917Z,42.18
2019-01-27T06:37:36.562Z,42.66
2019-01-27T06:40:05.425Z,42.08
2019-01-27T06:42:34.125Z,41.71
2019-01-27T06:45:02.856Z,41.71
2019-01-27T06:47:30.777Z,41.69
2019-01-27T06:49:59.957Z,41.68
2019-01-27T06:52:28.637Z,41.61
2019-01-27T06:54:57.296Z,41.65
2019-01-27T06:57:25.917Z,41.64
2019-01-27T06:59:59.056Z,41.68
2019-01-27T07:02:42.070Z,41.73
2019-01-27T07:05:23.861Z,41.75
2019-01-27T07:08:04.484Z,41.79
2019-01-27T07:10:50.829Z,41.84
2019-01-27T07:13:30.952Z,41.89
2019-01-27T07:16:21.875Z,42.05
2019-01-27T07:19:09.641Z,42.07
2019-01-27T07:22:00.655Z,42.25
2019-01-27T07:24:35.518Z,42.32
2019-01-27T07:27:35.386Z,42.34
2019-01-27T07:30:39.153Z,42.35
2019-01-27T07:33:32.946Z,42.34
2019-01-27T07:36:27.048Z,42.28
2019-01-27T07:39:06.962Z,42.23
2019-01-27T07:41:59.145Z,42.21
2019-01-27T07:44:33.851Z,42.21
2019-01-27T07:47:08.158Z,42.21
2019-01-27T07:49:47.024Z,42.23
2019-01-27T07:52:46.852Z,42.24
2019-01-27T07:55:33.575Z,42.67
2019-01-27T07:58:11.748Z,42.80
2019-01-27T08:00:58.680Z,42.68
2019-01-27T08:03:36.300Z,42.84
2019-01-27T08:06:27.213Z,42.62
2019-01-27T08:09:08.643Z,42.77
2019-01-27T08:11:50.921Z,42.69
2019-01-27T08:14:35.914Z,43.23
2019-01-27T08:17:22.524Z,43.24
2019-01-27T08:20:13.321Z,43.35
2019-01-27T08:23:00.007Z,43.23
2019-01-27T08:25:46.107Z,43.19
2019-01-27T08:28:31.577Z,43.25
2019-01-27T08:31:09.816Z,43.30
2019-01-27T08:34:06.629Z,43.32
2019-01-27T08:36:49.101Z,43.30
2019-01-27T08:39:28.750Z,43.27
2019-01-27T08:42:07.564Z,43.24
2019-01-27T08:44:52.170Z,43.25
2019-01-27T08:47:21.339Z,43.78
2019-01-27T08:49:50.245Z,43.74
2019-01-27T08:52:19.062Z,43.80
2019-01-27T08:54:47.561Z,43.90
2019-01-27T08:57:15.575Z,43.94
2019-01-27T08:59:44.423Z,43.95
2019-01-27T09:02:38.364Z,44.15
2019-01-27T09:05:45.373Z,43.93
2019-01-27T09:08:28.229Z,43.79
2019-01-27T09:11:30.842Z,43.66
2019-01-27T09:14:08.979Z,43.48
2019-01-27T09:16:48.785Z,43.48
2019-01-27T09:19:30.292Z,43.94
2019-01-27T09:22:24.361Z,43.90
2019-01-27T09:25:09.492Z,43.62
2019-01-27T09:27:55.752Z,44.25
2019-01-27T09:30:39.375Z,44.83
2019-01-27T09:33:25.911Z,46.82
2019-01-27T09:36:22.344Z,47.25
2019-01-27T09:39:13.216Z,47.16
2019-01-27T09:42:06.764Z,47.96
2019-01-27T09:44:43.630Z,49.54
2019-01-27T09:47:24.232Z,48.54
2019-01-27T09:50:15.219Z,48.91
2019-01-27T09:53:02.901Z,49.16
2019-01-27T09:56:05.872Z,49.34
2019-01-27T09:58:53.627Z,49.99
2019-01-27T10:01:29.467Z,49.97
2019-01-27T10:04:09.212Z,49.32
2019-01-27T10:06:59.441Z,49.36
2019-01-27T10:09:45.598Z,50.45
2019-01-27T10:12:36.375Z,50.79
2019-01-27T10:15:25.386Z,50.72
2019-01-27T10:18:11.738Z,50.66
2019-01-27T10:20:51.059Z,50.74
2019-01-27T10:23:41.979Z,50.17
2019-01-27T10:26:17.732Z,49.64
2019-01-27T10:29:12.345Z,48.98
2019-01-27T10:31:58.853Z,48.60
2019-01-27T10:34:45.324Z,48.05
2019-01-27T10:37:31.859Z,47.74
2019-01-27T10:40:25.650Z,47.64
2019-01-27T10:43:26.168Z,47.42
2019-01-27T10:46:15.354Z,47.19
2019-01-27T10:49:22.065Z,46.98
2019-01-27T10:52:09.716Z,46.82
2019-01-27T10:54:47.318Z,46.63
2019-01-27T10:57:44.129Z,46.51
2019-01-27T11:00:34.008Z,46.49
2019-01-27T11:03:09.399Z,47.31
2019-01-27T11:06:09.365Z,47.78
2019-01-27T11:09:09.398Z,48.09
2019-01-27T11:11:47.661Z,48.83
2019-01-27T11:14:54.375Z,51.31
2019-01-27T11:17:57.342Z,51.36
2019-01-27T11:20:43.654Z,49.67
2019-01-27T11:23:42.941Z,48.82
2019-01-27T11:26:21.967Z,48.49
2019-01-27T11:29:18.982Z,48.29
2019-01-27T11:32:02.043Z,48.08
2019-01-27T11:34:52.308Z,47.92
2019-01-27T11:37:54.984Z,47.80
2019-01-27T11:40:35.886Z,47.66
2019-01-27T11:43:22.075Z,47.59
2019-01-27T11:46:07.595Z,47.58
2019-01-27T11:49:01.374Z,47.68
2019-01-27T11:51:35.571Z,47.54
2019-01-27T11:54:04.363Z,47.44
2019-01-27T11:56:32.254Z,47.38
2019-01-27T11:59:01.056Z,47.31
2019-01-27T12:01:29.080Z,47.25
2019-01-27T12:03:58.046Z,47.27
2019-01-27T12:06:26.866Z,47.25
2019-01-27T12:09:02.476Z,47.25
2019-01-27T12:15:15.704Z,47.23
2019-01-27T12:17:44.774Z,47.25
2019-01-27T12:20:13.678Z,47.24
2019-01-27T12:22:42.802Z,47.25
2019-01-27T12:25:12.446Z,47.27
2019-01-27T12:27:41.214Z,47.23
2019-01-27T12:30:11.229Z,47.19
2019-01-27T12:32:41.126Z,47.08
2019-01-27T12:35:10.037Z,47.11
2019-01-27T12:37:39.293Z,47.07
2019-01-27T12:40:13.638Z,47.01
2019-01-27T12:42:43.520Z,46.93
2019-01-27T12:45:15.721Z,46.76
2019-01-27T12:47:44.643Z,46.63
2019-01-27T12:50:15.192Z,47.01
2019-01-27T12:52:45.920Z,46.98
2019-01-27T12:55:14.906Z,47.17
2019-01-27T12:57:43.580Z,47.82
2019-01-27T13:00:24.648Z,49.32
2019-01-27T13:02:54.763Z,52.75
2019-01-27T13:05:23.438Z,54.23
2019-01-27T13:07:52.184Z,55.53
2019-01-27T13:10:20.384Z,56.02
2019-01-27T13:12:49.245Z,56.87
2019-01-27T13:15:18.268Z,57.78
2019-01-27T13:17:47.112Z,58.31
2019-01-27T13:20:14.982Z,58.31
2019-01-27T13:22:44.161Z,57.61
2019-01-27T13:25:14.500Z,56.88
2019-01-27T13:27:43.468Z,55.43
2019-01-27T13:30:15.188Z,55.11
2019-01-27T13:32:44.053Z,54.72
2019-01-27T13:35:13.701Z,54.11
2019-01-27T13:37:42.996Z,53.35
2019-01-27T13:40:14.855Z,52.69
2019-01-27T13:42:43.807Z,52.22
2019-01-27T13:45:15.584Z,51.75
2019-01-27T13:47:45.156Z,51.30
2019-01-27T13:50:14.087Z,50.88
2019-01-27T13:52:43.519Z,50.61
2019-01-27T13:55:15.403Z,50.26
2019-01-27T13:57:44.218Z,49.95
2019-01-27T14:00:16.626Z,49.54
2019-01-27T14:02:45.561Z,49.37
2019-01-27T14:05:14.347Z,49.38
2019-01-27T14:07:42.299Z,49.20
2019-01-27T14:10:14.123Z,49.16
2019-01-27T14:12:42.999Z,49.87
2019-01-27T14:15:14.553Z,49.54
2019-01-27T14:17:43.488Z,49.30
2019-01-27T14:20:14.156Z,49.12
2019-01-27T14:22:43.157Z,48.99
2019-01-27T14:25:13.844Z,48.88
2019-01-27T14:27:42.795Z,48.80
2019-01-27T14:30:14.383Z,48.67
2019-01-27T14:32:43.420Z,49.67
2019-01-27T14:35:13.110Z,49.63
2019-01-27T14:38:01.426Z,49.96
2019-01-27T14:40:30.153Z,50.22
2019-01-27T14:42:58.863Z,49.80
2019-01-27T14:45:27.655Z,49.99
2019-01-27T14:47:56.526Z,49.97
2019-01-27T14:50:28.017Z,49.35
2019-01-27T14:52:57.210Z,49.10
2019-01-27T14:55:26.477Z,48.98
2019-01-27T14:57:55.229Z,48.89
2019-01-27T15:00:24.656Z,48.86
2019-01-27T15:02:53.375Z,48.76
2019-01-27T15:05:21.422Z,48.73
2019-01-27T15:07:50.118Z,49.12
2019-01-27T15:10:19.589Z,49.23
2019-01-27T15:12:48.291Z,48.99
2019-01-27T15:15:17.065Z,48.73
2019-01-27T15:17:44.928Z,48.44
2019-01-27T15:20:19.676Z,48.38
2019-01-27T15:22:48.350Z,48.17
2019-01-27T15:25:17.007Z,48.12
2019-01-27T15:27:45.422Z,48.13
2019-01-27T15:30:20.908Z,48.05
2019-01-27T15:32:49.604Z,47.88
2019-01-27T15:35:17.455Z,48.18
2019-01-27T15:37:46.218Z,48.15
2019-01-27T15:40:15.212Z,47.89
2019-01-27T15:42:43.997Z,47.79
2019-01-27T15:45:15.464Z,47.78
2019-01-27T15:47:45.429Z,47.79
2019-01-27T15:50:17.674Z,48.19
2019-01-27T15:52:46.573Z,48.72
2019-01-27T15:55:17.971Z,48.53
2019-01-27T15:57:48.116Z,48.25
2019-01-27T16:00:22.620Z,48.28
2019-01-27T16:03:03.771Z,48.03
2019-01-27T16:05:32.597Z,48.25
2019-01-27T16:08:01.296Z,47.88
2019-01-27T16:10:30.669Z,47.87
2019-01-27T16:12:59.590Z,47.98
2019-01-27T16:16:24.035Z,47.72
2019-01-27T16:18:24.698Z,47.94
2019-01-27T16:20:53.550Z,48.11
2019-01-27T16:23:39.875Z,47.79
2019-01-27T16:26:08.629Z,47.54
2019-01-27T16:28:36.771Z,47.45
2019-01-27T16:31:23.020Z,47.54
2019-01-27T16:33:56.288Z,47.59
2019-01-27T16:36:28.171Z,47.98
2019-01-27T16:38:57.101Z,47.86
2019-01-27T16:41:26.512Z,47.76
2019-01-27T16:43:55.725Z,47.72
2019-01-27T16:46:28.264Z,47.80
2019-01-27T16:48:57.057Z,47.99
2019-01-27T16:51:24.927Z,47.93
2019-01-27T16:53:53.616Z,48.11
2019-01-27T16:56:22.521Z,48.41
2019-01-27T16:58:51.221Z,48.56
2019-01-27T17:01:19.613Z,49.25
2019-01-27T17:03:48.197Z,49.20
2019-01-27T17:06:17.305Z,49.34
2019-01-27T17:08:46.125Z,50.22
2019-01-27T17:11:14.851Z,48.80
2019-01-27T17:13:42.795Z,48.59
2019-01-27T17:16:12.386Z,48.63
2019-01-27T17:18:44.614Z,49.32
2019-01-27T17:21:13.490Z,49.54
2019-01-27T17:23:42.235Z,49.31
2019-01-27T17:26:14.333Z,49.02
2019-01-27T17:28:43.172Z,49.10
2019-01-27T17:31:13.537Z,48.69
2019-01-27T17:33:43.192Z,48.42
2019-01-27T17:36:12.155Z,48.28
2019-01-27T17:38:40.981Z,48.44
2019-01-27T17:41:10.208Z,47.78
2019-01-27T17:43:39.018Z,47.53
2019-01-27T17:46:07.039Z,47.41
2019-01-27T17:48:36.263Z,47.25
2019-01-27T17:51:05.129Z,47.12
2019-01-27T17:53:43.346Z,46.99
2019-01-27T17:56:12.047Z,46.86
2019-01-27T17:59:02.089Z,46.73
2019-01-27T18:01:58.969Z,46.72
2019-01-27T18:04:47.501Z,46.60
2019-01-27T18:07:29.960Z,46.63
2019-01-27T18:10:26.505Z,51.17
2019-01-27T18:13:13.286Z,52.08
2019-01-27T18:15:43.027Z,49.55
2019-01-27T18:18:11.825Z,48.93
2019-01-27T18:20:39.855Z,48.66
2019-01-27T18:23:11.327Z,53.28
2019-01-27T18:25:40.017Z,51.75
2019-01-27T18:28:08.874Z,51.90
2019-01-27T18:30:37.920Z,51.07
2019-01-27T18:33:07.100Z,51.21
2019-01-27T18:35:35.991Z,50.47
2019-01-27T18:38:05.775Z,50.00
2019-01-27T18:40:34.872Z,49.63
2019-01-27T18:43:03.546Z,49.18
2019-01-27T18:45:31.530Z,48.91
2019-01-27T18:48:00.322Z,50.27
2019-01-27T18:50:29.125Z,50.47
2019-01-27T18:53:15.644Z,50.34
2019-01-27T18:56:00.301Z,50.13
2019-01-27T18:58:36.915Z,50.11
2019-01-27T19:01:24.249Z,50.11
2019-01-27T19:04:05.739Z,50.22
2019-01-27T19:06:56.873Z,50.15
2019-01-27T19:09:41.619Z,50.21
2019-01-27T19:12:22.670Z,50.43
2019-01-27T19:15:15.294Z,49.82
2019-01-27T19:18:03.075Z,49.45
2019-01-27T19:20:51.979Z,49.10
2019-01-27T19:23:45.285Z,49.34
2019-01-27T19:26:20.472Z,49.43
2019-01-27T19:29:08.377Z,49.03
2019-01-27T19:31:57.588Z,49.03
2019-01-27T19:34:45.326Z,49.34
2019-01-27T19:37:27.486Z,49.84
2019-01-27T19:40:19.148Z,49.69
2019-01-27T19:43:06.899Z,50.26
2019-01-27T19:45:54.601Z,50.35
2019-01-27T19:48:45.401Z,50.56
2019-01-27T19:51:48.874Z,50.64
2019-01-27T19:54:45.647Z,50.40
2019-01-27T19:57:45.177Z,50.39
2019-01-27T20:00:25.998Z,50.45
2019-01-27T20:03:26.125Z,50.45
2019-01-27T20:06:08.663Z,50.55
2019-01-27T20:08:59.456Z,50.70
2019-01-27T20:11:53.367Z,50.70
2019-01-27T20:14:47.432Z,50.64
2019-01-27T20:17:33.665Z,50.66
2019-01-27T20:20:22.358Z,50.63
2019-01-27T20:23:11.661Z,50.62
2019-01-27T20:25:53.122Z,50.65
2019-01-27T20:28:41.148Z,50.74
2019-01-27T20:31:27.260Z,50.75
2019-01-27T20:34:13.775Z,50.75
2019-01-27T20:37:01.549Z,50.75
2019-01-27T20:39:48.105Z,50.73
2019-01-27T20:42:36.452Z,50.79
2019-01-27T20:45:28.526Z,50.79
2019-01-27T20:48:34.473Z,50.78
2019-01-27T20:51:14.180Z,50.77
2019-01-27T20:54:05.009Z,50.79
2019-01-27T20:56:52.707Z,50.60
2019-01-27T20:59:40.678Z,50.27
2019-01-27T21:02:27.641Z,49.97
2019-01-27T21:05:09.916Z,50.14
2019-01-27T21:07:46.960Z,50.14
2019-01-27T21:10:33.428Z,49.66
2019-01-27T21:13:36.987Z,49.43
2019-01-27T21:16:24.759Z,49.42
2019-01-27T21:19:24.993Z,49.42
2019-01-27T21:21:53.703Z,49.94
2019-01-27T21:24:21.612Z,49.91
2019-01-27T21:26:50.282Z,49.83
2019-01-27T21:29:18.184Z,49.66
2019-01-27T21:31:47.168Z,49.51
2019-01-27T21:34:15.884Z,49.44
2019-01-27T21:36:43.801Z,49.25
2019-01-27T21:39:12.664Z,49.10
2019-01-27T21:41:41.580Z,48.94
2019-01-27T21:44:10.346Z,48.94
2019-01-27T21:46:39.177Z,49.17
2019-01-27T21:49:08.133Z,48.05
2019-01-27T21:51:36.860Z,48.05
2019-01-27T21:54:05.610Z,48.35
2019-01-27T21:56:34.615Z,48.10
2019-01-27T21:59:03.306Z,48.07
2019-01-27T22:01:32.028Z,47.98
2019-01-27T22:04:01.049Z,48.09
2019-01-27T22:06:29.785Z,48.05
2019-01-27T22:08:58.485Z,47.95
2019-01-27T22:11:27.259Z,47.97
2019-01-27T22:13:56.041Z,48.04
2019-01-27T22:16:24.761Z,48.11
2019-01-27T22:18:53.746Z,48.08
2019-01-27T22:21:22.466Z,48.18
2019-01-27T22:23:51.190Z,48.06
2019-01-27T22:26:19.949Z,48.18
2019-01-27T22:28:48.655Z,48.00
2019-01-27T22:31:17.586Z,48.12
2019-01-27T22:33:46.303Z,48.12
2019-01-27T22:36:15.021Z,48.23
2019-01-27T22:38:43.767Z,48.23
2019-01-27T22:41:12.473Z,48.01
2019-01-27T22:43:41.183Z,48.07
2019-01-27T22:46:09.884Z,48.07
2019-01-27T22:48:38.971Z,48.14
2019-01-27T22:51:07.704Z,48.37
2019-01-27T22:53:36.420Z,48.16
2019-01-27T22:56:05.200Z,48.10
2019-01-27T22:58:34.068Z,48.07
2019-01-27T23:01:08.927Z,48.05
2019-01-27T23:03:39.668Z,48.00
2019-01-27T23:06:08.354Z,47.98
2019-01-27T23:08:36.255Z,47.93
2019-01-27T23:11:05.196Z,47.90
2019-01-27T23:13:34.105Z,47.87
2019-01-27T23:16:02.806Z,48.05
2019-01-27T23:18:30.736Z,48.09
2019-01-27T23:20:59.388Z,48.16
2019-01-27T23:23:31.212Z,48.33
2019-01-27T23:25:59.911Z,48.26
2019-01-27T23:28:28.611Z,48.24
2019-01-27T23:30:56.501Z,48.42
2019-01-27T23:33:25.134Z,48.34
2019-01-27T23:35:53.397Z,48.40
2019-01-27T23:38:22.036Z,48.40
2019-01-27T23:40:49.930Z,48.34
2019-01-27T23:43:18.573Z,48.35
2019-01-27T23:45:47.264Z,48.39
2019-01-27T23:48:15.302Z,48.37
2019-01-27T23:50:44.081Z,48.36
2019-01-27T23:53:12.958Z,48.43
2019-01-27T23:55:41.659Z,48.47
2019-01-27T23:58:10.350Z,48.48
